createdAt,value
2022-11-13T00:00:50.729Z,22.13
2022-11-13T00:03:17.299Z,21.80
2022-11-13T00:05:44.206Z,22.77
2022-11-13T00:08:10.838Z,21.75
2022-11-13T00:10:37.775Z,23.90
2022-11-13T00:13:04.420Z,22.67
2022-11-13T00:15:31.097Z,24.98
2022-11-13T00:18:02.455Z,27.42
2022-11-13T00:20:29.320Z,23.13
2022-11-13T00:22:56.053Z,29.45
2022-11-13T00:25:24.477Z,27.98
2022-11-13T00:27:51.041Z,24.10
2022-11-13T00:30:19.551Z,23.77
2022-11-13T00:32:46.452Z,26.80
2022-11-13T00:35:13.002Z,23.77
2022-11-13T00:37:39.596Z,23.63
2022-11-13T00:42:57.694Z,21.50
2022-11-13T00:45:24.263Z,23.08
2022-11-13T00:47:50.833Z,20.88
2022-11-13T00:50:17.568Z,22.08
2022-11-13T00:52:44.138Z,24.88
2022-11-13T00:55:10.921Z,21.92
2022-11-13T00:57:37.490Z,26.45
2022-11-13T01:00:04.853Z,26.85
2022-11-13T01:02:31.514Z,26.98
2022-11-13T01:04:58.148Z,20.83
2022-11-13T01:07:24.721Z,21.98
2022-11-13T01:09:51.481Z,20.00
2022-11-13T01:12:18.128Z,18.95
2022-11-13T01:14:44.716Z,23.75
2022-11-13T01:17:11.283Z,22.45
2022-11-13T01:19:37.957Z,20.40
2022-11-13T01:22:04.532Z,18.73
2022-11-13T01:24:31.657Z,17.30
2022-11-13T01:26:58.235Z,21.48
2022-11-13T01:29:24.820Z,26.80
2022-11-13T01:31:51.383Z,20.23
2022-11-13T01:34:18.019Z,25.45
2022-11-13T01:36:44.568Z,19.08
2022-11-13T01:39:11.928Z,26.77
2022-11-13T01:41:38.549Z,18.50
2022-11-13T01:44:10.985Z,21.38
2022-11-13T01:46:44.959Z,25.90
2022-11-13T01:49:15.526Z,20.38
2022-11-13T01:51:53.417Z,18.42
2022-11-13T01:54:24.068Z,18.00
2022-11-13T01:56:51.517Z,23.38
2022-11-13T01:59:22.778Z,20.02
2022-11-13T02:01:49.788Z,24.77
2022-11-13T02:04:16.403Z,22.95
2022-11-13T02:06:48.045Z,22.50
2022-11-13T02:09:17.620Z,25.63
2022-11-13T02:11:44.417Z,19.27
2022-11-13T02:14:12.750Z,22.55
2022-11-13T02:16:41.634Z,20.10
2022-11-13T02:19:17.130Z,19.48
2022-11-13T02:21:52.948Z,20.55
2022-11-13T02:24:24.750Z,16.75
2022-11-13T02:26:53.808Z,20.65
2022-11-13T02:29:20.447Z,18.45
2022-11-13T02:31:47.069Z,16.63
2022-11-13T02:34:13.632Z,18.00
2022-11-13T02:36:40.300Z,16.63
2022-11-13T02:39:10.884Z,18.48
2022-11-13T02:41:38.433Z,19.13
2022-11-13T02:44:06.284Z,20.88
2022-11-13T02:46:33.317Z,16.13
2022-11-13T02:48:59.917Z,18.80
2022-11-13T02:51:26.502Z,17.80
2022-11-13T02:53:53.170Z,18.88
2022-11-13T02:56:19.984Z,18.33
2022-11-13T02:58:46.568Z,17.65
2022-11-13T03:01:13.266Z,15.40
2022-11-13T03:06:26.452Z,18.17
2022-11-13T03:08:53.051Z,15.68
2022-11-13T03:11:19.745Z,17.65
2022-11-13T03:13:46.348Z,15.05
2022-11-13T03:16:15.233Z,20.50
2022-11-13T03:18:42.141Z,18.63
2022-11-13T03:21:11.970Z,18.80
2022-11-13T03:23:40.078Z,25.23
2022-11-13T03:26:12.165Z,20.33
2022-11-13T03:28:38.734Z,16.08
2022-11-13T03:31:05.463Z,15.55
2022-11-13T03:33:32.660Z,13.27
2022-11-13T03:35:59.741Z,20.55
2022-11-13T03:38:26.667Z,14.18
2022-11-13T03:40:53.538Z,17.20
2022-11-13T03:43:20.231Z,14.88
2022-11-13T03:45:47.702Z,15.13
2022-11-13T03:48:16.003Z,14.68
2022-11-13T03:50:47.935Z,21.13
2022-11-13T03:53:14.988Z,15.32
2022-11-13T03:55:42.610Z,18.30
2022-11-13T03:58:09.554Z,14.85
2022-11-13T04:00:37.190Z,14.70
2022-11-13T04:03:03.920Z,16.27
2022-11-13T04:05:30.601Z,13.15
2022-11-13T04:07:57.220Z,16.52
2022-11-13T04:10:24.501Z,14.27
2022-11-13T04:12:51.308Z,13.15
2022-11-13T04:15:17.930Z,15.57
2022-11-13T04:17:44.572Z,17.58
2022-11-13T04:20:11.564Z,14.38
2022-11-13T04:22:38.389Z,14.77
2022-11-13T04:25:06.073Z,14.38
2022-11-13T04:27:32.992Z,14.73
2022-11-13T04:29:59.553Z,13.82
2022-11-13T04:32:26.145Z,14.88
2022-11-13T04:34:52.720Z,13.95
2022-11-13T04:37:19.299Z,14.52
2022-11-13T04:39:45.959Z,13.35
2022-11-13T04:42:31.603Z,13.88
2022-11-13T04:44:58.253Z,13.00
2022-11-13T04:47:24.939Z,15.68
2022-11-13T04:49:51.562Z,12.27
2022-11-13T04:52:18.195Z,11.35
2022-11-13T04:54:44.811Z,16.88
2022-11-13T04:57:11.414Z,13.50
2022-11-13T04:59:38.017Z,15.38
2022-11-13T05:02:04.807Z,13.02
2022-11-13T05:04:31.464Z,11.10
2022-11-13T05:06:58.147Z,12.15
2022-11-13T05:09:24.847Z,10.80
2022-11-13T05:11:51.482Z,11.77
2022-11-13T05:14:18.123Z,13.13
2022-11-13T05:16:44.745Z,13.50
2022-11-13T05:19:11.396Z,11.35
2022-11-13T05:21:39.433Z,11.55
2022-11-13T05:24:06.540Z,11.02
2022-11-13T05:26:33.381Z,14.05
2022-11-13T05:29:00.744Z,11.15
2022-11-13T05:31:27.723Z,11.00
2022-11-13T05:33:54.825Z,10.45
2022-11-13T05:36:22.408Z,11.73
2022-11-13T05:38:49.561Z,13.40
2022-11-13T05:41:18.677Z,10.35
2022-11-13T05:43:45.893Z,9.90
2022-11-13T05:46:16.834Z,10.75
2022-11-13T05:48:44.779Z,10.02
2022-11-13T05:51:14.326Z,12.25
2022-11-13T05:53:41.766Z,12.00
2022-11-13T05:56:11.869Z,13.20
2022-11-13T05:58:39.367Z,13.35
2022-11-13T06:01:11.510Z,13.32
2022-11-13T06:03:38.685Z,15.75
2022-11-13T06:06:09.610Z,11.27
2022-11-13T06:08:36.676Z,13.13
2022-11-13T06:11:06.584Z,15.25
2022-11-13T06:13:33.223Z,16.75
2022-11-13T06:16:11.425Z,13.65
2022-11-13T06:18:39.065Z,13.30
2022-11-13T06:21:08.609Z,12.95
2022-11-13T06:23:36.969Z,15.30
2022-11-13T06:26:10.611Z,12.18
2022-11-13T06:28:37.815Z,14.70
2022-11-13T06:31:06.889Z,15.95
2022-11-13T06:33:34.237Z,13.18
2022-11-13T06:36:12.316Z,13.27
2022-11-13T06:38:40.337Z,15.55
2022-11-13T06:41:08.606Z,13.32
2022-11-13T06:43:35.403Z,13.27
2022-11-13T06:46:08.152Z,11.95
2022-11-13T06:48:34.971Z,14.30
2022-11-13T06:51:06.566Z,11.40
2022-11-13T06:53:33.804Z,14.02
2022-11-13T06:56:01.095Z,13.23
2022-11-13T06:58:28.456Z,14.88
2022-11-13T07:00:55.264Z,16.35
2022-11-13T07:03:29.464Z,16.88
2022-11-13T07:05:56.059Z,13.82
2022-11-13T07:08:22.733Z,15.02
2022-11-13T07:10:54.772Z,15.15
2022-11-13T07:13:22.169Z,16.63
2022-11-13T07:15:48.925Z,15.25
2022-11-13T07:18:18.994Z,16.33
2022-11-13T07:20:48.297Z,17.58
2022-11-13T07:23:14.945Z,17.20
2022-11-13T07:25:41.642Z,15.93
2022-11-13T07:28:08.204Z,13.82
2022-11-13T07:30:34.852Z,16.05
2022-11-13T07:33:03.085Z,13.63
2022-11-13T07:35:29.744Z,14.40
2022-11-13T07:37:56.993Z,14.73
2022-11-13T07:40:24.007Z,23.00
2022-11-13T07:43:01.530Z,19.33
2022-11-13T07:45:28.719Z,14.73
2022-11-13T07:48:02.793Z,23.20
2022-11-13T07:50:31.845Z,15.95
2022-11-13T07:53:00.818Z,14.07
2022-11-13T07:55:28.113Z,14.23
2022-11-13T07:57:59.560Z,15.88
2022-11-13T08:00:27.583Z,14.68
2022-11-13T08:02:54.332Z,15.40
2022-11-13T08:05:21.502Z,18.00
2022-11-13T08:07:51.379Z,13.88
2022-11-13T08:10:19.957Z,16.48
2022-11-13T08:12:46.948Z,14.05
2022-11-13T08:15:14.151Z,12.93
2022-11-13T08:17:41.055Z,14.18
2022-11-13T08:20:08.953Z,15.35
2022-11-13T08:22:35.644Z,17.30
2022-11-13T08:25:02.412Z,12.77
2022-11-13T08:27:29.110Z,17.45
2022-11-13T08:29:55.811Z,15.50
2022-11-13T08:32:22.631Z,20.20
2022-11-13T08:34:49.321Z,16.45
2022-11-13T08:37:16.069Z,17.25
2022-11-13T08:39:42.718Z,13.60
2022-11-13T08:42:09.660Z,16.58
2022-11-13T08:44:36.456Z,12.75
2022-11-13T08:47:04.486Z,14.88
2022-11-13T08:49:31.129Z,15.18
2022-11-13T08:51:57.734Z,14.57
2022-11-13T08:54:24.634Z,17.67
2022-11-13T08:56:56.031Z,19.33
2022-11-13T08:59:23.839Z,18.58
2022-11-13T09:01:50.764Z,16.10
2022-11-13T09:04:17.551Z,17.20
2022-11-13T09:06:44.334Z,16.20
2022-11-13T09:09:11.057Z,17.13
2022-11-13T09:11:38.188Z,17.55
2022-11-13T09:14:04.837Z,18.73
2022-11-13T09:16:31.486Z,21.38
2022-11-13T09:18:58.172Z,19.50
2022-11-13T09:21:24.763Z,19.60
2022-11-13T09:23:51.466Z,18.40
2022-11-13T09:26:18.169Z,18.42
2022-11-13T09:28:44.830Z,23.40
2022-11-13T09:31:14.184Z,27.08
2022-11-13T09:33:40.816Z,22.27
2022-11-13T09:36:14.992Z,14.90
2022-11-13T09:38:42.054Z,16.45
2022-11-13T09:41:17.359Z,16.15
2022-11-13T09:43:54.049Z,16.27
2022-11-13T09:46:40.516Z,17.35
2022-11-13T09:49:17.101Z,17.13
2022-11-13T09:51:53.760Z,15.30
2022-11-13T09:54:21.842Z,15.63
2022-11-13T09:57:06.606Z,14.98
2022-11-13T09:59:45.000Z,20.48
2022-11-13T10:02:40.635Z,14.35
2022-11-13T10:05:19.448Z,12.20
2022-11-13T10:08:18.033Z,13.00
2022-11-13T10:10:57.720Z,15.23
2022-11-13T10:13:38.165Z,13.07
2022-11-13T10:16:16.755Z,17.38
2022-11-13T10:18:45.085Z,18.90
2022-11-13T10:21:33.419Z,18.90
2022-11-13T10:24:03.999Z,18.83
2022-11-13T10:26:31.776Z,18.90
2022-11-13T10:29:06.431Z,23.00
2022-11-13T10:31:48.117Z,17.50
2022-11-13T10:34:17.921Z,23.40
2022-11-13T10:36:47.517Z,19.13
2022-11-13T10:39:14.144Z,17.42
2022-11-13T10:41:55.149Z,25.15
2022-11-13T10:44:52.309Z,17.73
2022-11-13T10:47:42.272Z,28.00
2022-11-13T10:50:24.082Z,21.73
2022-11-13T10:52:53.768Z,18.63
2022-11-13T10:55:33.751Z,17.58
2022-11-13T10:58:12.387Z,18.63
2022-11-13T11:00:41.516Z,16.88
2022-11-13T11:03:24.335Z,21.65
2022-11-13T11:06:04.924Z,17.60
2022-11-13T11:08:35.181Z,18.67
2022-11-13T11:11:25.969Z,19.95
2022-11-13T11:13:52.675Z,17.13
2022-11-13T11:16:23.285Z,22.02
2022-11-13T11:19:11.986Z,19.50
2022-11-13T11:21:41.911Z,24.20
2022-11-13T11:24:16.782Z,23.65
2022-11-13T11:26:52.268Z,21.38
2022-11-13T11:29:48.417Z,22.58
2022-11-13T11:32:52.470Z,19.20
2022-11-13T11:35:24.267Z,19.40
2022-11-13T11:38:10.077Z,24.38
2022-11-13T11:40:42.279Z,20.17
2022-11-13T11:43:20.944Z,27.50
2022-11-13T11:45:48.038Z,22.08
2022-11-13T11:48:18.043Z,23.80
2022-11-13T11:50:56.652Z,22.00
2022-11-13T11:53:58.798Z,24.60
2022-11-13T11:56:56.241Z,24.92
2022-11-13T12:00:00.310Z,31.45
2022-11-13T12:02:43.821Z,24.45
2022-11-13T12:05:35.641Z,26.23
2022-11-13T12:08:21.011Z,21.67
2022-11-13T12:10:50.654Z,25.98
2022-11-13T12:13:45.435Z,29.92
2022-11-13T12:16:41.462Z,26.55
2022-11-13T12:19:07.997Z,31.80
2022-11-13T12:21:54.796Z,25.45
2022-11-13T12:24:31.828Z,28.13
2022-11-13T12:27:20.767Z,25.33
2022-11-13T12:30:15.467Z,25.35
2022-11-13T12:33:03.858Z,24.50
2022-11-13T12:35:31.008Z,31.85
2022-11-13T12:38:19.268Z,23.58
2022-11-13T12:40:55.145Z,23.48
2022-11-13T12:43:47.022Z,28.38
2022-11-13T12:46:14.153Z,28.97
2022-11-13T12:48:43.618Z,25.70
2022-11-13T12:51:12.646Z,23.95
2022-11-13T12:53:53.705Z,22.70
2022-11-13T12:56:27.478Z,24.25
2022-11-13T12:59:33.808Z,18.08
2022-11-13T13:02:06.813Z,27.65
2022-11-13T13:04:45.320Z,24.35
2022-11-13T13:07:30.469Z,29.02
2022-11-13T13:10:27.239Z,25.95
2022-11-13T13:12:56.579Z,29.40
2022-11-13T13:15:29.242Z,29.92
2022-11-13T13:18:06.223Z,38.00
2022-11-13T13:20:36.774Z,32.15
2022-11-13T13:23:08.304Z,33.70
2022-11-13T13:25:36.326Z,30.90
2022-11-13T13:28:18.058Z,32.33
2022-11-13T13:31:00.875Z,43.67
2022-11-13T13:34:12.648Z,38.38
2022-11-13T13:37:05.000Z,60.65
2022-11-13T13:39:56.836Z,61.08
2022-11-13T13:42:42.636Z,51.70
2022-11-13T13:45:25.741Z,57.70
2022-11-13T13:47:54.959Z,58.70
2022-11-13T13:50:29.354Z,65.28
2022-11-13T13:52:57.952Z,68.40
2022-11-13T13:55:39.081Z,57.00
2022-11-13T13:58:13.771Z,59.60
2022-11-13T14:00:59.331Z,41.03
2022-11-13T14:03:29.225Z,57.20
2022-11-13T14:06:07.606Z,41.58
2022-11-13T14:08:34.335Z,38.17
2022-11-13T14:11:15.620Z,38.35
2022-11-13T14:13:42.197Z,44.38
2022-11-13T14:16:09.039Z,49.72
2022-11-13T14:18:35.911Z,50.83
2022-11-13T14:21:08.571Z,45.55
2022-11-13T14:23:42.928Z,44.55
2022-11-13T14:26:11.826Z,45.85
2022-11-13T14:29:01.817Z,43.58
2022-11-13T14:31:32.393Z,44.00
2022-11-13T14:34:10.243Z,48.13
2022-11-13T14:36:38.086Z,40.50
2022-11-13T14:39:04.882Z,40.65
2022-11-13T14:41:35.045Z,41.95
2022-11-13T14:44:02.271Z,41.40
2022-11-13T14:46:35.976Z,40.83
2022-11-13T14:49:02.938Z,46.38
2022-11-13T14:51:34.014Z,52.53
2022-11-13T14:54:08.703Z,50.90
2022-11-13T14:56:42.924Z,47.83
2022-11-13T14:59:26.090Z,38.00
2022-11-13T15:01:56.618Z,44.22
2022-11-13T15:04:24.335Z,41.45
2022-11-13T15:06:55.807Z,35.75
2022-11-13T15:09:24.221Z,49.38
2022-11-13T15:11:51.088Z,48.30
2022-11-13T15:14:20.065Z,41.67
2022-11-13T15:16:48.328Z,44.05
2022-11-13T15:19:24.206Z,40.30
2022-11-13T15:22:20.410Z,36.50
2022-11-13T15:24:37.462Z,39.55
2022-11-13T15:27:04.325Z,44.95
2022-11-13T15:29:30.885Z,45.20
2022-11-13T15:31:57.677Z,41.13
2022-11-13T15:34:24.415Z,47.28
2022-11-13T15:36:51.074Z,41.70
2022-11-13T15:39:23.466Z,38.17
2022-11-13T15:41:50.580Z,50.58
2022-11-13T15:44:17.213Z,37.97
2022-11-13T15:46:43.830Z,35.95
2022-11-13T15:49:10.439Z,45.20
2022-11-13T15:51:46.277Z,43.55
2022-11-13T15:54:25.268Z,45.47
2022-11-13T15:56:51.852Z,46.35
2022-11-13T15:59:18.451Z,43.83
2022-11-13T16:01:45.866Z,59.90
2022-11-13T16:04:14.709Z,49.92
2022-11-13T16:06:41.815Z,36.03
2022-11-13T16:09:13.153Z,39.35
2022-11-13T16:11:40.086Z,45.55
2022-11-13T16:14:06.814Z,44.03
2022-11-13T16:16:36.736Z,44.47
2022-11-13T16:19:09.693Z,46.88
2022-11-13T16:21:36.308Z,47.60
2022-11-13T16:24:03.014Z,48.58
2022-11-13T16:26:29.832Z,43.83
2022-11-13T16:31:42.982Z,52.50
2022-11-13T16:34:09.559Z,58.28
2022-11-13T16:36:36.156Z,49.03
2022-11-13T16:39:03.768Z,63.15
2022-11-13T16:41:31.711Z,56.65
2022-11-13T16:43:58.346Z,55.33
2022-11-13T16:46:35.681Z,41.22
2022-11-13T16:49:02.499Z,44.13
2022-11-13T16:51:29.116Z,39.50
2022-11-13T16:53:55.663Z,42.65
2022-11-13T16:56:28.928Z,40.00
2022-11-13T16:58:56.485Z,38.67
2022-11-13T17:01:23.812Z,36.78
2022-11-13T17:03:51.495Z,49.30
2022-11-13T17:06:27.958Z,51.85
2022-11-13T17:08:56.163Z,50.38
2022-11-13T17:11:27.146Z,43.45
2022-11-13T17:13:59.517Z,53.90
2022-11-13T17:16:27.925Z,47.85
2022-11-13T17:18:54.914Z,53.88
2022-11-13T17:21:23.618Z,49.88
2022-11-13T17:24:01.561Z,43.95
2022-11-13T17:26:29.780Z,59.05
2022-11-13T17:28:59.241Z,49.40
2022-11-13T17:31:26.585Z,56.15
2022-11-13T17:33:54.083Z,46.65
2022-11-13T17:36:21.776Z,38.10
2022-11-13T17:38:48.482Z,57.63
2022-11-13T17:41:16.173Z,44.00
2022-11-13T17:43:43.295Z,40.58
2022-11-13T17:46:14.260Z,51.60
2022-11-13T17:48:41.679Z,41.47
2022-11-13T17:51:11.765Z,65.18
2022-11-13T17:53:38.478Z,42.25
2022-11-13T17:56:09.460Z,55.70
2022-11-13T17:58:44.494Z,52.03
2022-11-13T18:01:13.940Z,49.30
2022-11-13T18:03:40.705Z,49.40
2022-11-13T18:06:11.958Z,45.17
2022-11-13T18:08:41.326Z,43.30
2022-11-13T18:11:09.538Z,54.25
2022-11-13T18:13:37.010Z,47.42
2022-11-13T18:16:09.382Z,50.55
2022-11-13T18:21:23.362Z,45.90
2022-11-13T18:23:57.246Z,51.35
2022-11-13T18:26:24.991Z,50.78
2022-11-13T18:28:51.584Z,57.55
2022-11-13T18:31:19.600Z,42.80
2022-11-13T18:33:46.210Z,45.40
2022-11-13T18:36:12.882Z,54.00
2022-11-13T18:38:39.535Z,52.13
2022-11-13T18:41:10.323Z,47.25
2022-11-13T18:43:37.652Z,67.13
2022-11-13T18:46:07.069Z,53.15
2022-11-13T18:48:36.986Z,51.53
2022-11-13T18:51:06.333Z,56.83
2022-11-13T18:53:33.276Z,60.47
2022-11-13T18:56:08.513Z,59.92
2022-11-13T18:58:43.607Z,64.05
2022-11-13T19:01:20.682Z,65.95
2022-11-13T19:04:08.690Z,53.30
2022-11-13T19:06:38.593Z,58.60
2022-11-13T19:09:09.908Z,72.05
2022-11-13T19:11:36.665Z,52.90
2022-11-13T19:14:04.094Z,59.10
2022-11-13T19:16:36.632Z,60.63
2022-11-13T19:19:13.699Z,43.75
2022-11-13T19:21:40.794Z,57.33
2022-11-13T19:24:08.691Z,61.47
2022-11-13T19:26:35.268Z,55.17
2022-11-13T19:29:01.851Z,58.58
2022-11-13T19:31:28.644Z,51.65
2022-11-13T19:33:59.988Z,52.22
2022-11-13T19:36:28.162Z,52.15
2022-11-13T19:38:56.053Z,48.30
2022-11-13T19:41:23.217Z,57.25
2022-11-13T19:43:50.167Z,53.08
2022-11-13T19:46:18.691Z,48.17
2022-11-13T19:48:47.365Z,50.55
2022-11-13T19:51:23.484Z,54.17
2022-11-13T19:53:55.465Z,53.17
2022-11-13T19:56:23.558Z,48.88
2022-11-13T19:58:51.175Z,64.30
2022-11-13T20:01:20.009Z,57.58
2022-11-13T20:03:46.965Z,52.53
2022-11-13T20:06:15.606Z,48.42
2022-11-13T20:08:42.944Z,61.22
2022-11-13T20:11:11.286Z,51.65
2022-11-13T20:13:39.101Z,51.80
2022-11-13T20:16:06.822Z,54.03
2022-11-13T20:18:33.834Z,52.13
2022-11-13T20:21:00.840Z,50.67
2022-11-13T20:23:27.709Z,48.72
2022-11-13T20:26:03.427Z,61.97
2022-11-13T20:28:31.579Z,52.78
2022-11-13T20:31:19.571Z,48.75
2022-11-13T20:33:50.836Z,48.22
2022-11-13T20:36:18.319Z,50.47
2022-11-13T20:38:50.514Z,61.90
2022-11-13T20:41:20.359Z,51.97
2022-11-13T20:43:48.062Z,48.90
2022-11-13T20:46:16.206Z,61.25
2022-11-13T20:48:42.954Z,54.15
2022-11-13T20:51:14.294Z,56.67
2022-11-13T20:53:41.649Z,53.50
2022-11-13T20:56:09.121Z,58.72
2022-11-13T20:58:35.908Z,54.97
2022-11-13T21:01:10.342Z,52.33
2022-11-13T21:03:42.054Z,50.50
2022-11-13T21:06:13.926Z,50.80
2022-11-13T21:08:40.895Z,55.05
2022-11-13T21:11:14.134Z,70.03
2022-11-13T21:13:40.845Z,51.58
2022-11-13T21:16:09.107Z,53.78
2022-11-13T21:18:36.280Z,52.67
2022-11-13T21:21:11.845Z,49.65
2022-11-13T21:23:38.550Z,53.60
2022-11-13T21:26:06.631Z,54.90
2022-11-13T21:28:34.120Z,56.60
2022-11-13T21:31:05.891Z,44.17
2022-11-13T21:33:40.382Z,48.33
2022-11-13T21:36:15.999Z,45.95
2022-11-13T21:38:43.093Z,50.47
2022-11-13T21:41:25.110Z,55.20
2022-11-13T21:43:51.837Z,51.13
2022-11-13T21:46:19.644Z,52.67
2022-11-13T21:48:47.233Z,52.53
2022-11-13T21:51:13.908Z,47.65
2022-11-13T21:53:40.543Z,51.92
2022-11-13T21:56:11.237Z,60.45
2022-11-13T21:58:41.926Z,60.03
2022-11-13T22:01:09.568Z,55.08
2022-11-13T22:03:36.643Z,64.05
2022-11-13T22:06:15.124Z,69.43
2022-11-13T22:08:43.109Z,61.92
2022-11-13T22:11:10.322Z,65.55
2022-11-13T22:13:37.378Z,60.13
2022-11-13T22:16:06.234Z,62.78
2022-11-13T22:18:33.592Z,58.75
2022-11-13T22:21:04.694Z,68.90
2022-11-13T22:23:31.868Z,65.93
2022-11-13T22:26:03.800Z,51.83
2022-11-13T22:28:32.279Z,67.90
2022-11-13T22:30:59.368Z,62.25
2022-11-13T22:33:31.342Z,64.88
2022-11-13T22:36:10.409Z,55.42
2022-11-13T22:38:38.377Z,57.53
2022-11-13T22:41:10.079Z,54.40
2022-11-13T22:43:40.037Z,50.45
2022-11-13T22:46:11.242Z,58.72
2022-11-13T22:48:39.896Z,52.72
2022-11-13T22:51:09.066Z,55.28
2022-11-13T22:53:36.027Z,64.97
2022-11-13T22:56:07.890Z,62.28
2022-11-13T22:58:34.540Z,62.13
2022-11-13T23:01:09.345Z,61.03
2022-11-13T23:03:41.337Z,54.83
2022-11-13T23:06:09.383Z,51.78
2022-11-13T23:08:38.804Z,54.33
2022-11-13T23:11:14.313Z,57.80
2022-11-13T23:13:42.683Z,53.00
2022-11-13T23:16:09.632Z,61.83
2022-11-13T23:18:36.221Z,51.78
2022-11-13T23:21:02.998Z,57.38
2022-11-13T23:23:30.004Z,52.75
2022-11-13T23:25:57.024Z,53.45
2022-11-13T23:28:23.616Z,62.92
2022-11-13T23:30:50.337Z,52.58
2022-11-13T23:33:16.922Z,55.50
2022-11-13T23:35:43.596Z,74.18
2022-11-13T23:38:10.569Z,61.15
2022-11-13T23:40:37.537Z,63.88
2022-11-13T23:43:04.553Z,76.78
2022-11-13T23:45:31.214Z,50.45
2022-11-13T23:47:57.850Z,72.70
2022-11-13T23:50:24.433Z,77.57
2022-11-13T23:52:50.989Z,59.75
2022-11-13T23:55:18.187Z,67.13
2022-11-13T23:57:45.072Z,62.95
